Knoxville, Illinois
Current Conditions -  °F | °C
As of 6:15 PM on Friday 21 Nov 2014 (Local Time) from KGBG Reporting Station
Overcast Overcast  
Wind Chill: 29°   Ceiling: 2400
Heat Index: 35°   Visibility: 10mi
Dew Point: 11°   Wind: 7mph
Humidity: 37%   Direction: 150°SSE
Pressure: 30.23"   Gusts: NA
Location:  40.91°N, 90.28°W
Report Text: KGBG 220015Z AUTO 15006KT 10SM OVC024 02/M12 A3023 RMK AO2 T00151119
Loading
Personal Weather Stations






























Interactive Weather Map New forecast layout! Learn more

10-Day Weather Forecast

Advertisements
Track Severe Weather on mobile